Airfield :
LOGIN :

Register | Disclaimer

   EN    FR    IT 

 










Legend :    VFR   Marginal VFR   IFR   Intensive IFR   Very Intensive IFR
Visi :
Ceiling :
>= 8 km
>= 3000ft
5 to 8 km
1000 to 3000 ft
1500m to 5 km
500 to 1000 ft
800 to 1500m
200 to 500 ft
< 800m
< 200 ft
Symbols :   Thunderstorms  Fog  Heavy snow  Heavy precipitations  Wind > 20 kt
SIGMETs :     Misc.  Thunderstorms  Icing  Turbulence  Mountain Waves  Volcanic Ashes






- Airport Elevation : 325 ft
- IATA code : BES


LFRB - Brest

CURRENT METAR :
  • 021000Z AUTO 02010KT 330V060 9999 FEW035 OVC048 10/02 Q1020 NOSIG

EXPIRED METARs :
  • 020930Z AUTO 02010KT 350V050 9999 BKN035 OVC050 09/03 Q1020 NOSIG
  • 020900Z AUTO 01008KT 330V040 9999 FEW037 OVC050 09/02 Q1020 NOSIG
  • 020830Z AUTO 01006KT 340V040 9999 OVC048 08/03 Q1020 NOSIG
  • 020800Z AUTO 34004KT 9999 OVC046 07/03 Q1020 NOSIG
  • 020730Z AUTO 36004KT 9999 FEW036 OVC042 06/02 Q1020 NOSIG

TAF TAF LFRB
Valid from the 02 at 06:00 until the 03 at 12:00 UTC


020500Z 0206/0312 VRB03KT 9999 OVC045
BECMG 0211/0213 35010KT
BECMG 0222/0224 VRB03KT
PROB30
TEMPO 0306/0309 2000 BR
ATIS : +33 2 98 32 02 71



MET'MAP, your aeronautical weather chart ! - Copyright ORBIFLY December 2007 - Disclaimer

ORBIFLY MET'MAP TEAM :

Programming & Development : Alexandra Zaïnal
Concept & original design : Baudouin d'Aumeries
Assistance for programming : Marc-Olivier Méhu
Technical & hardware support : Manuel Goepfert

Contact : metmap@orbifly.com




SOURCES & CREDITS :

   NOAA